Time;durP1;ratioP1;P1;durP2;ratioP2;P2;SDS_P1;SDS_P2;PMS_P1;PMS_P2;Temp;Humidity;BMP_temperature;BMP_pressure;BME280_temperature;BME280_humidity;BME280_pressure;Samples;Min_cycle;Max_cycle;Signal;HPM_P1;HPM_P2
2023/08/20 00:01:44;;;;;;;10.02;1.80;;;;;;;15.80;100.00;100239.75;5000747;28;20041;-81
2023/08/20 00:04:12;;;;;;;17.08;2.85;;;;;;;15.80;100.00;100227.25;5004038;28;20044;-82
2023/08/20 00:06:38;;;;;;;13.55;2.08;;;;;;;15.72;100.00;100236.16;5007500;28;20443;-81
2023/08/20 00:09:08;;;;;;;12.75;2.03;;;;;;;15.69;100.00;100254.34;5007976;28;20042;-81
2023/08/20 00:11:34;;;;;;;14.73;2.17;;;;;;;15.63;100.00;100238.09;5023942;28;20507;-81
2023/08/20 00:13:59;;;;;;;11.55;1.77;;;;;;;15.60;100.00;100249.13;4992332;28;20061;-84
2023/08/20 00:16:26;;;;;;;10.27;1.55;;;;;;;15.60;100.00;100248.28;5008095;28;20052;-81
2023/08/20 00:18:52;;;;;;;10.60;1.77;;;;;;;15.56;100.00;100250.47;5007557;28;20026;-80
2023/08/20 00:21:18;;;;;;;15.13;2.33;;;;;;;15.54;100.00;100251.69;5008888;28;20107;-82
2023/08/20 00:23:44;;;;;;;10.82;1.63;;;;;;;15.50;100.00;100256.53;5012343;28;20037;-82
2023/08/20 00:26:10;;;;;;;10.50;1.77;;;;;;;15.48;100.00;100259.38;5008670;28;20030;-83
2023/08/20 00:28:38;;;;;;;13.18;1.70;;;;;;;15.45;100.00;100254.41;5008613;28;20562;-82
2023/08/20 00:31:04;;;;;;;15.10;2.10;;;;;;;15.43;100.00;100260.94;5006565;28;20404;-82
2023/08/20 00:33:31;;;;;;;11.85;1.73;;;;;;;15.39;100.00;100252.47;5007586;28;20040;-83
2023/08/20 00:35:58;;;;;;;10.27;1.63;;;;;;;15.36;100.00;100255.50;5003508;28;20092;-82
2023/08/20 00:38:23;;;;;;;12.90;2.38;;;;;;;15.30;100.00;100253.56;5026281;28;20450;-83
2023/08/20 00:40:49;;;;;;;11.95;1.80;;;;;;;15.26;100.00;100258.41;5009864;28;20033;-81
2023/08/20 00:43:15;;;;;;;11.63;1.88;;;;;;;15.24;100.00;100273.75;4990657;28;20034;-82
2023/08/20 00:45:42;;;;;;;23.83;2.10;;;;;;;15.23;100.00;100269.44;4989778;28;20052;-81
2023/08/20 00:48:09;;;;;;;17.52;1.85;;;;;;;15.20;100.00;100259.97;5024755;28;20548;-82
2023/08/20 00:50:35;;;;;;;12.95;1.75;;;;;;;15.17;100.00;100267.47;4990782;28;20032;-82
2023/08/20 00:53:02;;;;;;;11.65;2.00;;;;;;;15.12;100.00;100266.19;4994419;28;20033;-81
2023/08/20 00:55:28;;;;;;;13.35;2.13;;;;;;;15.16;100.00;100265.84;4988044;28;20540;-82
2023/08/20 00:57:54;;;;;;;13.38;1.95;;;;;;;15.11;100.00;100269.84;4990481;28;20120;-82
2023/08/20 01:00:22;;;;;;;12.93;2.38;;;;;;;15.09;100.00;100268.38;5022475;28;20053;-81
2023/08/20 01:02:47;;;;;;;9.05;1.70;;;;;;;15.02;100.00;100280.75;4992715;28;20087;-81
2023/08/20 01:05:13;;;;;;;10.70;1.80;;;;;;;14.98;100.00;100278.44;5007427;28;20485;-81
2023/08/20 01:08:09;;;;;;;16.38;2.38;;;;;;;15.00;100.00;100280.94;5005652;28;20505;-83
2023/08/20 01:10:46;;;;;;;13.57;1.75;;;;;;;14.96;100.00;100274.28;5007988;28;20068;-81
2023/08/20 01:13:11;;;;;;;11.55;1.80;;;;;;;14.90;100.00;100272.34;5009322;28;20046;-82
2023/08/20 01:15:37;;;;;;;13.02;1.70;;;;;;;14.86;100.00;100277.19;5008555;28;20058;-81
2023/08/20 01:18:03;;;;;;;11.65;1.90;;;;;;;14.85;100.00;100287.03;5003591;28;20042;-81
2023/08/20 01:20:35;;;;;;;12.38;1.90;;;;;;;14.87;100.00;100284.19;5005693;28;20029;-82
2023/08/20 01:23:01;;;;;;;11.07;1.45;;;;;;;14.83;100.00;100281.03;4978818;28;20037;-81
2023/08/20 01:25:49;;;;;;;9.40;2.03;;;;;;;14.85;100.00;100288.84;5003006;28;20128;-83
2023/08/20 01:28:26;;;;;;;13.80;1.85;;;;;;;14.86;100.00;100286.00;5006299;28;20397;-80
2023/08/20 01:30:54;;;;;;;8.10;1.50;;;;;;;14.83;100.00;100293.50;4988715;28;20834;-81
2023/08/20 01:33:20;;;;;;;7.95;1.40;;;;;;;14.82;100.00;100291.84;5012958;28;20432;-82
2023/08/20 01:35:46;;;;;;;7.72;1.35;;;;;;;14.84;100.00;100293.31;4978261;28;20037;-82
2023/08/20 01:38:15;;;;;;;14.15;1.52;;;;;;;14.86;100.00;100291.31;4991219;28;20038;-82
2023/08/20 01:40:40;;;;;;;13.52;2.28;;;;;;;14.87;100.00;100298.28;5008027;28;20153;-82
2023/08/20 01:43:07;;;;;;;12.30;1.40;;;;;;;14.88;100.00;100309.78;4991574;28;20033;-83
2023/08/20 01:45:32;;;;;;;12.27;2.05;;;;;;;14.85;100.00;100307.47;4992724;28;20040;-81
2023/08/20 01:47:58;;;;;;;13.32;1.83;;;;;;;14.81;100.00;100295.53;4990230;28;20033;-82
2023/08/20 01:50:24;;;;;;;9.52;1.60;;;;;;;14.79;100.00;100300.16;4999487;28;20041;-82
2023/08/20 01:52:49;;;;;;;21.35;2.40;;;;;;;14.74;100.00;100306.84;5007723;28;20041;-82
2023/08/20 01:55:15;;;;;;;12.00;1.45;;;;;;;14.75;100.00;100303.19;5010587;28;20507;-82
2023/08/20 01:57:41;;;;;;;9.20;1.35;;;;;;;14.71;100.00;100306.34;5007271;28;20480;-82
2023/08/20 02:00:08;;;;;;;12.80;1.55;;;;;;;14.70;100.00;100302.06;4993104;28;20054;-82
2023/08/20 02:02:39;;;;;;;14.32;2.17;;;;;;;14.68;100.00;100302.22;5008642;28;20658;-84
2023/08/20 02:05:05;;;;;;;7.97;1.38;;;;;;;14.67;100.00;100294.44;5026777;28;20037;-83
2023/08/20 02:07:31;;;;;;;12.48;1.38;;;;;;;14.64;100.00;100299.09;4996568;28;20030;-82
2023/08/20 02:10:02;;;;;;;10.55;1.35;;;;;;;14.64;100.00;100311.53;4992656;28;20046;-83
2023/08/20 02:12:28;;;;;;;9.10;1.35;;;;;;;14.59;100.00;100306.75;5006006;28;20069;-81
2023/08/20 02:14:54;;;;;;;11.00;1.70;;;;;;;14.58;100.00;100312.25;4999448;28;20065;-84
2023/08/20 02:17:23;;;;;;;18.85;1.55;;;;;;;14.55;100.00;100308.13;5011704;28;20038;-82
2023/08/20 02:19:49;;;;;;;10.30;1.30;;;;;;;14.52;100.00;100309.28;4979074;28;20046;-84
2023/08/20 02:22:14;;;;;;;9.23;1.25;;;;;;;14.51;100.00;100302.31;4975560;28;20036;-81
2023/08/20 02:24:40;;;;;;;8.30;1.80;;;;;;;14.51;100.00;100304.13;5011782;28;20033;-85
2023/08/20 02:27:07;;;;;;;13.15;1.67;;;;;;;14.50;100.00;100310.47;5007969;28;20038;-82
2023/08/20 02:29:33;;;;;;;8.00;1.70;;;;;;;14.46;100.00;100303.84;5003990;28;20030;-82
2023/08/20 02:31:58;;;;;;;13.82;2.17;;;;;;;14.42;100.00;100299.84;5009044;28;20503;-82
2023/08/20 02:34:24;;;;;;;10.50;1.40;;;;;;;14.42;100.00;100311.31;4986724;28;20026;-84
2023/08/20 02:36:50;;;;;;;8.95;1.98;;;;;;;14.45;100.00;100324.28;4995535;28;20608;-81
2023/08/20 02:39:16;;;;;;;14.82;2.47;;;;;;;14.42;100.00;100311.31;5009460;28;20042;-81
2023/08/20 02:41:42;;;;;;;7.63;1.27;;;;;;;14.41;100.00;100322.13;5013362;28;20401;-82
2023/08/20 02:44:09;;;;;;;6.20;1.40;;;;;;;14.37;100.00;100318.97;5010189;28;20038;-81
2023/08/20 02:46:35;;;;;;;10.02;1.52;;;;;;;14.37;100.00;100324.31;5028138;28;20034;-81
2023/08/20 02:49:01;;;;;;;10.68;1.35;;;;;;;14.36;100.00;100327.97;4994531;28;20045;-80
2023/08/20 02:51:27;;;;;;;12.10;1.40;;;;;;;14.35;100.00;100323.66;5010397;28;20354;-82
2023/08/20 02:53:53;;;;;;;11.60;1.50;;;;;;;14.34;100.00;100325.50;5012038;28;20125;-82
2023/08/20 02:56:19;;;;;;;12.48;1.70;;;;;;;14.34;100.00;100336.13;4994939;28;20030;-82
2023/08/20 02:58:45;;;;;;;13.93;1.60;;;;;;;14.35;100.00;100336.97;5028004;28;20061;-80
2023/08/20 03:01:22;;;;;;;10.30;1.17;;;;;;;14.36;100.00;100335.94;4976009;28;20033;-81
2023/08/20 03:03:47;;;;;;;13.15;1.70;;;;;;;14.32;100.00;100346.09;5002329;28;20032;-80
2023/08/20 03:06:14;;;;;;;11.32;1.20;;;;;;;14.34;100.00;100337.94;4976262;28;20385;-80
2023/08/20 03:08:39;;;;;;;12.18;1.80;;;;;;;14.36;100.00;100335.94;4986428;28;20034;-79
2023/08/20 03:11:05;;;;;;;14.77;1.50;;;;;;;14.37;100.00;100341.09;5002325;28;20038;-81
2023/08/20 03:13:31;;;;;;;7.97;1.10;;;;;;;14.41;100.00;100344.25;5040192;28;20500;-79
2023/08/20 03:15:57;;;;;;;8.55;1.30;;;;;;;14.43;100.00;100352.84;5000028;28;20088;-81
2023/08/20 03:18:22;;;;;;;7.90;1.10;;;;;;;14.42;100.00;100345.06;5005215;28;20504;-79
2023/08/20 03:20:48;;;;;;;14.35;2.35;;;;;;;14.42;100.00;100348.56;5007412;28;20053;-79
2023/08/20 03:23:14;;;;;;;11.68;1.50;;;;;;;14.45;100.00;100358.00;5008258;28;20041;-80
2023/08/20 03:25:39;;;;;;;12.48;1.60;;;;;;;14.46;100.00;100354.38;5008683;28;20037;-80
2023/08/20 03:28:05;;;;;;;9.98;2.20;;;;;;;14.49;100.00;100356.69;4994693;28;20033;-80
2023/08/20 03:30:31;;;;;;;10.55;2.33;;;;;;;14.53;100.00;100355.31;4993150;28;20045;-80
2023/08/20 03:32:57;;;;;;;11.55;1.83;;;;;;;14.55;100.00;100357.81;4992431;28;20194;-80
2023/08/20 03:35:23;;;;;;;14.30;1.77;;;;;;;14.57;100.00;100353.16;5007472;28;20042;-81
2023/08/20 03:37:49;;;;;;;13.85;1.33;;;;;;;14.59;100.00;100359.94;5008699;28;20041;-80
2023/08/20 03:40:15;;;;;;;12.27;1.55;;;;;;;14.60;100.00;100358.97;4971768;28;20045;-81
2023/08/20 03:42:42;;;;;;;4.10;0.77;;;;;;;14.58;100.00;100370.75;5025231;28;20080;-81
2023/08/20 03:45:09;;;;;;;12.80;1.73;;;;;;;14.56;100.00;100372.75;5001873;28;20522;-81
2023/08/20 03:47:36;;;;;;;8.30;1.40;;;;;;;14.59;100.00;100378.56;4976102;28;20038;-81
2023/08/20 03:50:03;;;;;;;11.02;1.90;;;;;;;14.61;100.00;100378.38;5024517;28;20496;-83
2023/08/20 03:52:29;;;;;;;10.40;1.58;;;;;;;14.50;100.00;100375.13;5007158;28;20037;-81
2023/08/20 03:54:55;;;;;;;9.88;1.23;;;;;;;14.44;100.00;100380.28;5011986;28;20678;-81
2023/08/20 03:57:21;;;;;;;6.78;1.77;;;;;;;14.33;100.00;100377.00;4992515;28;20488;-81
2023/08/20 03:59:47;;;;;;;10.85;1.83;;;;;;;14.24;100.00;100367.38;4989874;28;20107;-81
2023/08/20 04:02:14;;;;;;;12.38;1.83;;;;;;;14.21;100.00;100367.72;5007398;28;20488;-80
2023/08/20 04:04:40;;;;;;;8.70;1.10;;;;;;;14.19;100.00;100367.88;4992874;28;20038;-79
2023/08/20 04:07:06;;;;;;;15.13;1.50;;;;;;;14.16;100.00;100367.41;4997754;28;20117;-80
2023/08/20 04:09:36;;;;;;;8.38;1.33;;;;;;;14.16;100.00;100362.09;4992493;28;20045;-80
2023/08/20 04:12:03;;;;;;;7.15;1.13;;;;;;;14.14;100.00;100363.09;5005744;28;20053;-81
2023/08/20 04:14:29;;;;;;;12.95;1.80;;;;;;;14.18;100.00;100360.91;5005319;28;20400;-79
2023/08/20 04:16:54;;;;;;;11.98;1.40;;;;;;;14.18;100.00;100368.91;5023203;28;20045;-79
2023/08/20 04:19:20;;;;;;;9.90;1.10;;;;;;;14.17;100.00;100371.72;5000884;28;20060;-81
2023/08/20 04:21:46;;;;;;;7.63;1.50;;;;;;;14.14;100.00;100368.41;5024872;28;20464;-78
2023/08/20 04:24:12;;;;;;;8.60;1.48;;;;;;;14.11;100.00;100371.41;5007288;28;20029;-80
2023/08/20 04:26:38;;;;;;;9.60;1.00;;;;;;;14.09;100.00;100380.56;4998111;28;20037;-81
2023/08/20 04:29:05;;;;;;;12.73;1.80;;;;;;;14.04;100.00;100372.25;5003007;28;20037;-80
2023/08/20 04:31:31;;;;;;;16.00;1.58;;;;;;;14.02;100.00;100375.91;4992370;28;20041;-80
2023/08/20 04:34:04;;;;;;;5.95;1.08;;;;;;;13.99;100.00;100370.94;5006231;28;20091;-80
2023/08/20 04:36:46;;;;;;;14.48;1.65;;;;;;;14.02;100.00;100377.72;4988744;28;20034;-82
2023/08/20 04:39:12;;;;;;;6.47;1.23;;;;;;;14.01;100.00;100378.75;5024917;28;20042;-80
2023/08/20 04:41:42;;;;;;;8.45;0.93;;;;;;;13.99;100.00;100373.59;5007863;28;20033;-81
2023/08/20 04:44:12;;;;;;;6.30;1.17;;;;;;;13.95;100.00;100376.75;5008202;28;20124;-81
2023/08/20 04:46:38;;;;;;;14.48;1.40;;;;;;;13.94;100.00;100378.56;5008461;28;20120;-80
2023/08/20 04:49:04;;;;;;;13.27;1.40;;;;;;;13.94;100.00;100380.41;4968429;28;20034;-80
2023/08/20 04:51:30;;;;;;;9.02;1.40;;;;;;;13.91;100.00;100380.72;4991007;28;20051;-79
2023/08/20 04:53:56;;;;;;;9.40;1.98;;;;;;;13.91;100.00;100386.88;4990532;28;20120;-81
2023/08/20 04:56:22;;;;;;;11.23;1.67;;;;;;;13.91;100.00;100381.56;5007590;28;20041;-80
2023/08/20 04:58:48;;;;;;;13.57;1.58;;;;;;;13.95;100.00;100390.03;4993518;28;20535;-80
2023/08/20 05:01:28;;;;;;;8.63;1.67;;;;;;;13.95;100.00;100392.69;4973484;28;20262;-80
2023/08/20 05:03:53;;;;;;;8.50;1.63;;;;;;;13.97;100.00;100396.84;4990859;28;20040;-79
2023/08/20 05:06:19;;;;;;;18.38;2.25;;;;;;;13.97;100.00;100399.50;5004630;28;20584;-80
2023/08/20 05:08:45;;;;;;;10.00;1.60;;;;;;;14.02;100.00;100396.34;5001191;28;20049;-79
2023/08/20 05:11:10;;;;;;;10.15;1.88;;;;;;;14.02;100.00;100399.84;5003978;28;20108;-80
2023/08/20 05:13:36;;;;;;;7.93;1.75;;;;;;;14.07;100.00;100383.38;5005633;28;20034;-80
2023/08/20 05:16:02;;;;;;;12.23;1.70;;;;;;;14.12;100.00;100394.34;4990525;28;20037;-80
2023/08/20 05:18:28;;;;;;;13.35;2.08;;;;;;;14.17;100.00;100398.31;4989777;28;20073;-79
2023/08/20 05:20:54;;;;;;;10.85;1.90;;;;;;;14.24;100.00;100401.94;4980495;28;20041;-88
2023/08/20 05:23:20;;;;;;;12.90;2.00;;;;;;;14.23;100.00;100400.28;5004845;28;20392;-89
2023/08/20 05:25:45;;;;;;;10.13;1.42;;;;;;;14.27;100.00;100401.59;4994818;28;20034;-88
2023/08/20 05:28:11;;;;;;;13.02;2.00;;;;;;;14.25;100.00;100406.28;4994745;28;20511;-89
2023/08/20 05:30:37;;;;;;;11.95;1.85;;;;;;;14.25;100.00;100407.09;5010648;28;20042;-88
2023/08/20 05:33:03;;;;;;;18.75;2.22;;;;;;;14.27;100.00;100407.75;5003901;28;20042;-88
2023/08/20 05:35:35;;;;;;;11.98;1.58;;;;;;;14.27;100.00;100398.94;5012756;28;20068;-88
2023/08/20 05:38:01;;;;;;;13.55;1.98;;;;;;;14.21;100.00;100402.28;5014359;28;20030;-88
2023/08/20 05:40:27;;;;;;;11.43;1.52;;;;;;;14.25;100.00;100408.94;5000644;28;20373;-88
2023/08/20 05:42:53;;;;;;;11.30;1.73;;;;;;;14.26;100.00;100405.25;4998817;28;20030;-89
2023/08/20 05:45:19;;;;;;;11.82;1.98;;;;;;;14.26;100.00;100400.78;4998773;28;20033;-89
2023/08/20 05:47:45;;;;;;;11.00;1.27;;;;;;;14.30;100.00;100400.44;4999209;28;20022;-88
2023/08/20 05:50:10;;;;;;;15.10;1.65;;;;;;;14.33;100.00;100410.75;4997051;28;20049;-89
2023/08/20 05:52:36;;;;;;;12.85;1.63;;;;;;;14.39;100.00;100420.69;4993921;28;20045;-87
2023/08/20 05:55:03;;;;;;;12.52;1.38;;;;;;;14.35;100.00;100411.41;5011064;28;20041;-87
2023/08/20 05:57:28;;;;;;;14.77;1.70;;;;;;;14.38;100.00;100411.06;5015802;28;20073;-87
2023/08/20 05:59:54;;;;;;;17.52;1.58;;;;;;;14.39;100.00;100412.72;4998834;28;20054;-89
2023/08/20 06:02:20;;;;;;;8.60;1.65;;;;;;;14.39;100.00;100424.19;5021099;28;20516;-90
2023/08/20 06:04:46;;;;;;;11.07;1.73;;;;;;;14.44;100.00;100436.13;4983319;28;20046;-90
2023/08/20 06:07:12;;;;;;;10.43;1.58;;;;;;;14.44;100.00;100436.13;5006087;28;20034;-90
2023/08/20 06:09:37;;;;;;;10.52;1.30;;;;;;;14.41;100.00;100429.34;5010011;28;20441;-90
2023/08/20 06:12:03;;;;;;;10.75;1.40;;;;;;;14.49;100.00;100437.28;4999256;28;20045;-82
2023/08/20 06:14:29;;;;;;;10.50;1.20;;;;;;;14.53;100.00;100448.41;5015448;28;20045;-89
2023/08/20 06:16:55;;;;;;;12.70;1.90;;;;;;;14.58;100.00;100439.91;4999173;28;20034;-89
2023/08/20 06:19:21;;;;;;;8.90;1.50;;;;;;;14.58;100.00;100437.25;4998758;28;20073;-89
2023/08/20 06:21:46;;;;;;;11.57;2.08;;;;;;;14.60;100.00;100437.91;5014938;28;20034;-89
2023/08/20 06:24:12;;;;;;;12.05;1.77;;;;;;;14.60;100.00;100440.59;4995182;28;20041;-92
2023/08/20 06:26:38;;;;;;;11.15;1.70;;;;;;;14.57;100.00;100449.72;4995185;28;20037;-88
2023/08/20 06:29:04;;;;;;;13.68;1.83;;;;;;;14.56;100.00;100447.22;4982527;28;20552;-90
2023/08/20 06:31:30;;;;;;;9.38;1.50;;;;;;;14.52;100.00;100458.19;5018354;28;20037;-89
2023/08/20 06:33:56;;;;;;;19.50;2.38;;;;;;;14.50;100.00;100446.94;4990846;28;20045;-89
2023/08/20 06:36:21;;;;;;;15.93;1.70;;;;;;;14.57;100.00;100451.56;5011474;28;20037;-90
2023/08/20 06:38:47;;;;;;;9.40;1.55;;;;;;;14.57;100.00;100448.91;5014712;28;20037;-89
2023/08/20 06:41:13;;;;;;;15.77;2.47;;;;;;;14.61;100.00;100448.38;4990163;28;20041;-88
2023/08/20 06:43:39;;;;;;;14.60;1.55;;;;;;;14.67;100.00;100454.84;4976107;28;20025;-90
2023/08/20 06:46:05;;;;;;;11.23;1.48;;;;;;;14.77;100.00;100470.63;4995040;28;20038;-88
2023/08/20 06:48:30;;;;;;;20.00;1.95;;;;;;;14.85;100.00;100465.31;5044728;28;20056;-89
2023/08/20 06:50:56;;;;;;;13.27;1.63;;;;;;;14.90;100.00;100459.47;4999596;28;20127;-93
2023/08/20 06:53:22;;;;;;;11.95;1.77;;;;;;;14.99;100.00;100462.91;4983826;28;20045;-91
2023/08/20 06:55:48;;;;;;;15.35;2.00;;;;;;;15.08;100.00;100455.72;5002342;28;20034;-89
2023/08/20 06:58:14;;;;;;;13.73;1.88;;;;;;;15.08;100.00;100451.22;4998879;28;20510;-89
2023/08/20 07:00:40;;;;;;;16.17;1.83;;;;;;;15.15;100.00;100455.84;5046124;28;20038;-90
2023/08/20 07:03:05;;;;;;;13.38;1.58;;;;;;;15.27;100.00;100469.59;4997939;28;20555;-91
2023/08/20 07:05:34;;;;;;;9.95;1.52;;;;;;;15.32;100.00;100475.25;4995882;28;20078;-89
2023/08/20 07:07:59;;;;;;;11.02;2.53;;;;;;;15.40;100.00;100463.72;4986908;28;20495;-91
2023/08/20 07:10:25;;;;;;;9.13;1.88;;;;;;;15.47;100.00;100472.66;5007292;28;20103;-89
2023/08/20 07:12:51;;;;;;;13.38;2.00;;;;;;;15.52;100.00;100474.78;4997156;28;20033;-89
2023/08/20 07:15:17;;;;;;;13.55;2.00;;;;;;;15.51;100.00;100463.31;4997057;28;20036;-90
2023/08/20 07:17:43;;;;;;;13.65;1.92;;;;;;;15.56;100.00;100476.91;5012998;28;20065;-91
2023/08/20 07:20:09;;;;;;;16.27;2.08;;;;;;;15.58;100.00;100480.25;4998096;28;20118;-90
2023/08/20 07:22:35;;;;;;;19.88;2.85;;;;;;;15.58;100.00;100480.25;5013333;28;20099;-89
2023/08/20 07:25:00;;;;;;;12.07;2.10;;;;;;;15.59;100.00;100484.53;5010329;28;20488;-88
2023/08/20 07:27:26;;;;;;;11.95;1.90;;;;;;;15.61;100.00;100484.38;5004022;28;20468;-89
2023/08/20 07:29:52;;;;;;;14.77;1.95;;;;;;;15.74;100.00;100492.63;5017468;28;20034;-90
2023/08/20 07:32:18;;;;;;;12.57;1.65;;;;;;;15.81;100.00;100495.41;5014529;28;20049;-87
2023/08/20 07:34:44;;;;;;;14.30;2.13;;;;;;;15.87;100.00;100493.84;5014874;28;20125;-90
2023/08/20 07:37:10;;;;;;;15.65;2.40;;;;;;;15.92;100.00;100501.31;4975718;28;20112;-90
2023/08/20 07:39:36;;;;;;;12.18;1.60;;;;;;;15.88;100.00;100488.34;4980642;28;20096;-91
2023/08/20 07:42:02;;;;;;;12.95;2.65;;;;;;;15.93;100.00;100490.47;5027075;28;20038;-92
2023/08/20 07:44:28;;;;;;;10.77;1.83;;;;;;;15.95;100.00;100500.97;4998002;28;20083;-88
2023/08/20 07:46:54;;;;;;;12.10;2.90;;;;;;;15.93;100.00;100482.47;5006629;28;20030;-82
2023/08/20 07:49:19;;;;;;;12.73;2.28;;;;;;;15.95;100.00;100479.63;4995170;28;20064;-90
2023/08/20 07:51:45;;;;;;;12.25;1.55;;;;;;;16.02;100.00;100496.63;4996100;28;20030;-88
2023/08/20 07:54:11;;;;;;;14.18;2.17;;;;;;;16.04;100.00;100493.78;5010274;28;20669;-89
2023/08/20 07:56:37;;;;;;;10.85;2.80;;;;;;;16.04;100.00;100493.78;4995359;28;20042;-87
2023/08/20 07:59:03;;;;;;;17.25;2.58;;;;;;;16.10;100.00;100501.06;5012089;28;20776;-85
2023/08/20 08:01:29;;;;;;;11.88;1.83;;;;;;;16.18;100.00;100498.28;4977306;28;20043;-87
2023/08/20 08:03:55;;;;;;;16.00;2.15;;;;;;;16.21;100.00;100494.47;5001710;28;20045;-87
2023/08/20 08:06:23;;;;;;;14.52;2.42;;;;;;;16.21;100.00;100497.94;5011406;28;20038;-86
2023/08/20 08:08:49;;;;;;;15.63;2.63;;;;;;;16.28;100.00;100499.88;4995422;28;20038;-88
2023/08/20 08:11:15;;;;;;;16.20;2.67;;;;;;;16.28;100.00;100505.22;5012858;28;20053;-88
2023/08/20 08:13:40;;;;;;;13.45;2.55;;;;;;;16.31;100.00;100497.69;5007895;28;20037;-88
2023/08/20 08:16:06;;;;;;;21.23;2.85;;;;;;;16.36;100.00;100495.31;5012491;28;20488;-89
2023/08/20 08:18:32;;;;;;;14.75;2.17;;;;;;;16.41;100.00;100491.25;4995138;28;20044;-91
2023/08/20 08:21:00;;;;;;;16.58;2.83;;;;;;;16.51;100.00;100505.19;5011086;28;20035;-89
2023/08/20 08:23:29;;;;;;;15.10;2.80;;;;;;;16.58;100.00;100499.94;4980944;28;20038;-91
2023/08/20 08:25:55;;;;;;;20.17;2.63;;;;;;;16.61;100.00;100499.59;4995225;28;20029;-89
2023/08/20 08:28:21;;;;;;;17.08;2.53;;;;;;;16.69;100.00;100506.66;5011023;28;20041;-92
2023/08/20 08:30:47;;;;;;;10.00;2.40;;;;;;;16.72;100.00;100496.44;5002529;28;20038;-92
2023/08/20 08:33:13;;;;;;;17.63;3.03;;;;;;;16.82;100.00;100516.69;4978910;28;20033;-86
2023/08/20 08:35:39;;;;;;;10.57;2.15;;;;;;;16.83;100.00;100511.16;4990009;28;20481;-83
2023/08/20 08:38:04;;;;;;;15.63;2.67;;;;;;;16.86;100.00;100508.16;4987906;28;20038;-82
2023/08/20 08:40:30;;;;;;;18.60;2.92;;;;;;;16.92;100.00;100500.38;4987740;28;20492;-81
2023/08/20 08:42:56;;;;;;;13.15;2.60;;;;;;;16.99;100.00;100493.31;4991206;28;20041;-82
2023/08/20 08:45:23;;;;;;;12.52;1.98;;;;;;;17.06;100.00;100493.38;4991052;28;20038;-80
2023/08/20 08:47:49;;;;;;;13.43;2.03;;;;;;;17.09;100.00;100498.38;4992056;28;20061;-80
2023/08/20 08:50:15;;;;;;;11.07;2.47;;;;;;;17.09;100.00;100491.19;4978215;28;20448;-82
2023/08/20 08:52:42;;;;;;;12.80;2.17;;;;;;;17.13;100.00;100493.50;4990775;28;20030;-83
2023/08/20 08:55:08;;;;;;;16.20;2.60;;;;;;;17.13;100.00;100493.50;5007468;28;20037;-81
2023/08/20 08:57:37;;;;;;;19.02;2.55;;;;;;;17.23;100.00;100494.84;4987842;28;20034;-80
2023/08/20 09:00:04;;;;;;;19.83;3.15;;;;;;;17.29;100.00;100495.13;4994991;28;20644;-78
2023/08/20 09:02:30;;;;;;;15.32;2.67;;;;;;;17.33;100.00;100491.06;4996642;28;20038;-82
2023/08/20 09:04:57;;;;;;;16.90;2.40;;;;;;;17.38;100.00;100491.31;4974171;28;20041;-81
2023/08/20 09:07:22;;;;;;;11.10;2.58;;;;;;;17.41;100.00;100493.63;5004465;28;20054;-80
2023/08/20 09:09:49;;;;;;;12.02;2.33;;;;;;;17.46;100.00;100487.69;4999268;28;20041;-80
2023/08/20 09:12:16;;;;;;;15.05;2.45;;;;;;;17.53;100.00;100490.47;5009881;28;20069;-81
2023/08/20 09:14:50;;;;;;;12.85;2.08;;;;;;;17.58;100.00;100478.16;5001001;28;20037;-79
2023/08/20 09:17:16;;;;;;;12.40;2.33;;;;;;;17.62;100.00;100478.63;4979513;28;20057;-79
2023/08/20 09:19:44;;;;;;;13.82;2.05;;;;;;;17.60;100.00;100492.19;5000784;28;20037;-79
2023/08/20 09:22:14;;;;;;;10.68;1.92;;;;;;;17.63;100.00;100471.44;5010740;28;20480;-81
2023/08/20 09:24:51;;;;;;;13.05;1.88;;;;;;;17.66;100.00;100487.91;5013087;28;20046;-79
2023/08/20 09:27:17;;;;;;;13.98;2.55;;;;;;;17.65;100.00;100488.09;5009560;28;20033;-82
2023/08/20 09:29:45;;;;;;;16.20;2.15;;;;;;;17.80;100.00;100486.22;4999693;28;20392;-81
2023/08/20 09:32:18;;;;;;;12.13;2.22;;;;;;;17.84;100.00;100498.16;5028964;28;20171;-81
2023/08/20 09:34:45;;;;;;;9.25;1.70;;;;;;;17.88;100.00;100493.28;4990455;28;20068;-81
2023/08/20 09:37:13;;;;;;;9.05;1.83;;;;;;;17.92;100.00;100507.06;4995300;28;20038;-80
2023/08/20 09:39:39;;;;;;;14.55;2.17;;;;;;;17.92;100.00;100507.06;5012686;28;20145;-80
2023/08/20 09:42:06;;;;;;;15.60;2.00;;;;;;;17.98;100.00;100501.78;4984832;28;20423;-78
2023/08/20 09:44:35;;;;;;;8.27;1.58;;;;;;;18.08;100.00;100500.63;5008659;28;20507;-79
2023/08/20 09:47:04;;;;;;;10.63;1.90;;;;;;;18.16;100.00;100500.53;5013247;28;20072;-80
2023/08/20 09:49:35;;;;;;;6.95;1.40;;;;;;;18.17;100.00;100506.72;5009012;28;20765;-80
2023/08/20 09:52:04;;;;;;;6.13;1.60;;;;;;;18.22;100.00;100501.59;5020787;28;20064;-81
2023/08/20 09:54:52;;;;;;;9.82;1.80;;;;;;;18.30;100.00;100503.31;5011122;28;20528;-81
2023/08/20 09:57:31;;;;;;;10.48;1.67;;;;;;;18.33;100.00;100494.91;4994236;28;20159;-80
2023/08/20 09:59:59;;;;;;;8.68;1.60;;;;;;;18.32;100.00;100502.09;4990896;28;20088;-79
2023/08/20 10:02:25;;;;;;;11.68;1.88;;;;;;;18.35;100.00;100512.41;4979006;28;20029;-81
2023/08/20 10:04:52;;;;;;;9.80;1.70;;;;;;;18.40;100.00;100505.63;5010240;28;20064;-80
2023/08/20 10:07:18;;;;;;;9.98;1.55;;;;;;;18.51;100.00;100518.47;5011068;28;20088;-83
2023/08/20 10:09:45;;;;;;;7.30;1.75;;;;;;;18.63;100.00;100516.09;5019161;28;20027;-82
2023/08/20 10:12:13;;;;;;;12.13;1.92;;;;;;;18.69;100.00;100518.00;5010574;28;20034;-82
2023/08/20 10:14:40;;;;;;;8.43;1.40;;;;;;;18.82;100.00;100521.75;5002687;28;20082;-80
2023/08/20 10:17:11;;;;;;;8.63;1.50;;;;;;;18.87;100.00;100518.50;5010732;28;20094;-82
2023/08/20 10:19:38;;;;;;;7.20;1.40;;;;;;;18.93;100.00;100531.09;5014587;28;20045;-81
2023/08/20 10:22:06;;;;;;;7.57;1.52;;;;;;;18.90;100.00;100536.84;4991998;28;20125;-81
2023/08/20 10:24:48;;;;;;;7.80;1.75;;;;;;;18.93;100.00;100531.94;5001591;28;20049;-84
2023/08/20 10:27:25;;;;;;;11.73;1.80;;;;;;;18.97;100.00;100532.34;5010272;28;20026;-80
2023/08/20 10:29:53;;;;;;;9.32;1.70;;;;;;;19.04;100.00;100525.19;5011456;28;20057;-81
2023/08/20 10:32:19;;;;;;;6.28;1.35;;;;;;;18.97;100.00;100521.63;5010279;28;20107;-80
2023/08/20 10:34:51;;;;;;;8.20;1.00;;;;;;;19.02;100.00;100529.06;5010935;28;20045;-82
2023/08/20 10:37:27;;;;;;;6.50;1.60;;;;;;;19.09;100.00;100528.13;5010901;28;20030;-81
2023/08/20 10:39:55;;;;;;;6.78;1.27;;;;;;;19.14;100.00;100530.19;5027358;28;20037;-81
2023/08/20 10:42:22;;;;;;;10.48;1.83;;;;;;;19.16;100.00;100532.69;4994401;28;20380;-79
2023/08/20 10:45:10;;;;;;;9.73;1.50;;;;;;;19.32;100.00;100518.09;5012737;28;20046;-82
2023/08/20 10:47:47;;;;;;;6.18;1.60;;;;;;;19.39;100.00;100526.16;5007910;28;20046;-82
2023/08/20 10:50:18;;;;;;;9.40;1.70;;;;;;;19.54;100.00;100539.41;4985845;28;20542;-84
2023/08/20 10:52:49;;;;;;;6.50;1.90;;;;;;;19.69;100.00;100545.44;5007440;28;20030;-83
2023/08/20 10:55:15;;;;;;;10.50;1.38;;;;;;;19.76;100.00;100534.72;5025837;28;20036;-82
2023/08/20 10:57:41;;;;;;;8.65;1.95;;;;;;;19.93;100.00;100553.09;5005923;28;20096;-83
2023/08/20 11:00:11;;;;;;;9.02;1.50;;;;;;;20.06;100.00;100552.31;5015428;28;20049;-79
2023/08/20 11:02:39;;;;;;;7.57;1.50;;;;;;;20.04;100.00;100549.84;5027250;28;20037;-80
2023/08/20 11:05:19;;;;;;;8.70;1.45;;;;;;;20.00;100.00;100547.75;5008097;28;20042;-80
2023/08/20 11:07:48;;;;;;;7.13;1.20;;;;;;;19.94;100.00;100544.03;5005356;28;20036;-80
2023/08/20 11:10:15;;;;;;;11.20;1.80;;;;;;;20.01;100.00;100552.91;4990573;28;20032;-83
2023/08/20 11:12:50;;;;;;;10.27;1.67;;;;;;;20.08;100.00;100551.06;5002374;28;20519;-80